Time;durP1;ratioP1;P1;durP2;ratioP2;P2;SDS_P1;SDS_P2;PMS_P1;PMS_P2;Temp;Humidity;BMP_temperature;BMP_pressure;BME280_temperature;BME280_humidity;BME280_pressure;Samples;Min_cycle;Max_cycle;Signal;HPM_P1;HPM_P2
2024/01/20 00:01:53;;;;;;;6.93;2.53;;;1.50;99.90;;;;;;4948523;28;20049;-86
2024/01/20 00:04:19;;;;;;;3.28;2.30;;;1.50;99.90;;;;;;4931801;28;20418;-87
2024/01/20 00:06:44;;;;;;;7.28;3.13;;;1.50;99.90;;;;;;4927931;28;20027;-86
2024/01/20 00:09:10;;;;;;;6.13;2.25;;;1.50;99.90;;;;;;4940015;28;20025;-86
2024/01/20 00:11:37;;;;;;;5.53;1.92;;;1.50;99.90;;;;;;4936975;28;20131;-86
2024/01/20 00:14:03;;;;;;;7.38;2.85;;;1.50;99.90;;;;;;4947458;28;20031;-86
2024/01/20 00:16:35;;;;;;;5.07;2.40;;;1.60;99.90;;;;;;4973597;28;20042;-86
2024/01/20 00:19:00;;;;;;;7.43;2.80;;;1.60;99.90;;;;;;4952126;28;20027;-87
2024/01/20 00:21:26;;;;;;;5.63;2.30;;;1.60;99.90;;;;;;4951103;28;20494;-87
2024/01/20 00:23:51;;;;;;;8.77;3.58;;;1.60;99.90;;;;;;4949072;28;20058;-87
2024/01/20 00:26:17;;;;;;;8.65;2.33;;;1.60;99.90;;;;;;4955661;28;20027;-88
2024/01/20 00:28:42;;;;;;;5.53;2.63;;;1.60;99.90;;;;;;4967022;28;20109;-88
2024/01/20 00:31:08;;;;;;;10.23;3.47;;;1.70;99.90;;;;;;4957541;28;20180;-88
2024/01/20 00:33:33;;;;;;;3.10;2.03;;;1.70;99.90;;;;;;4955500;28;20030;-88
2024/01/20 00:35:59;;;;;;;8.05;3.15;;;1.60;99.90;;;;;;4954782;28;20712;-87
2024/01/20 00:38:27;;;;;;;5.82;2.97;;;1.60;99.90;;;;;;4967680;28;20390;-88
2024/01/20 00:40:53;;;;;;;6.93;2.65;;;1.60;99.90;;;;;;4965469;28;20655;-87
2024/01/20 00:43:18;;;;;;;6.85;2.90;;;1.60;99.90;;;;;;4973543;28;20094;-87
2024/01/20 00:45:45;;;;;;;4.28;2.58;;;1.60;99.90;;;;;;4962663;28;20102;-87
2024/01/20 00:48:11;;;;;;;4.13;2.25;;;1.60;99.90;;;;;;4962543;28;20022;-87
2024/01/20 00:50:36;;;;;;;4.03;2.50;;;1.60;99.90;;;;;;4961386;28;20026;-87
2024/01/20 00:53:02;;;;;;;7.97;2.88;;;1.60;99.90;;;;;;4968132;28;20027;-88
2024/01/20 00:55:27;;;;;;;7.03;2.40;;;1.60;99.90;;;;;;4970327;28;20380;-87
2024/01/20 00:57:53;;;;;;;6.32;2.80;;;1.60;99.90;;;;;;4967215;28;20101;-88
2024/01/20 01:00:19;;;;;;;7.05;2.20;;;1.60;99.90;;;;;;4961088;28;20042;-88
2024/01/20 01:02:44;;;;;;;6.15;2.33;;;1.60;99.90;;;;;;4974065;28;20031;-87
2024/01/20 01:05:10;;;;;;;5.93;2.55;;;1.60;99.90;;;;;;4967909;28;20457;-86
2024/01/20 01:07:36;;;;;;;8.82;2.90;;;1.60;99.90;;;;;;4963945;28;20029;-86
2024/01/20 01:10:03;;;;;;;5.82;2.35;;;1.60;99.90;;;;;;4967344;28;20037;-88
2024/01/20 01:12:29;;;;;;;6.88;2.35;;;1.60;99.90;;;;;;4964760;28;20042;-88
2024/01/20 01:14:55;;;;;;;7.25;3.05;;;1.50;99.90;;;;;;4976779;28;20023;-88
2024/01/20 01:17:21;;;;;;;5.47;2.85;;;1.60;99.90;;;;;;4985168;28;20054;-89
2024/01/20 01:19:46;;;;;;;5.32;2.25;;;1.60;99.90;;;;;;4981791;28;20030;-89
2024/01/20 01:22:12;;;;;;;6.43;2.92;;;1.60;99.90;;;;;;4984457;28;20098;-88
2024/01/20 01:24:37;;;;;;;5.10;2.72;;;1.60;99.90;;;;;;4974580;28;20042;-87
2024/01/20 01:27:07;;;;;;;7.15;2.60;;;1.60;99.90;;;;;;4979353;28;20038;-87
2024/01/20 01:29:33;;;;;;;3.85;2.35;;;1.50;99.90;;;;;;4977830;28;20086;-88
2024/01/20 01:31:58;;;;;;;4.03;2.78;;;1.50;99.90;;;;;;4973657;28;20030;-89
2024/01/20 01:34:24;;;;;;;6.32;2.30;;;1.50;99.90;;;;;;4972570;28;20033;-87
2024/01/20 01:36:49;;;;;;;9.70;2.90;;;1.60;99.90;;;;;;4968708;28;20069;-88
2024/01/20 01:39:18;;;;;;;3.47;2.72;;;1.60;99.90;;;;;;4965470;28;20027;-88
2024/01/20 01:41:44;;;;;;;11.77;2.85;;;1.60;99.90;;;;;;4966077;28;20442;-87
2024/01/20 01:44:10;;;;;;;7.70;3.25;;;1.60;99.90;;;;;;4963515;28;20019;-88
2024/01/20 01:46:36;;;;;;;5.78;2.92;;;1.60;99.90;;;;;;4967692;28;20054;-87
2024/01/20 01:49:02;;;;;;;7.75;3.05;;;1.60;99.90;;;;;;4967361;28;20018;-88
2024/01/20 01:51:28;;;;;;;7.13;3.08;;;1.60;99.90;;;;;;4964973;28;20070;-87
2024/01/20 01:53:54;;;;;;;6.93;3.08;;;1.60;99.90;;;;;;4966634;28;20066;-88
2024/01/20 01:56:20;;;;;;;5.78;2.80;;;1.50;99.90;;;;;;4966121;28;20041;-86
2024/01/20 01:58:46;;;;;;;2.67;2.25;;;1.50;99.90;;;;;;4966662;28;20117;-88
2024/01/20 02:01:12;;;;;;;7.80;3.08;;;1.50;99.90;;;;;;4967905;28;20077;-88
2024/01/20 02:03:38;;;;;;;7.13;2.78;;;1.50;99.90;;;;;;4967935;28;20042;-88
2024/01/20 02:06:05;;;;;;;7.07;3.83;;;1.50;99.90;;;;;;4961105;28;20031;-87
2024/01/20 02:08:31;;;;;;;5.18;3.03;;;1.50;99.90;;;;;;4966630;28;21099;-87
2024/01/20 02:10:57;;;;;;;8.65;3.38;;;1.50;99.90;;;;;;4970267;28;20034;-87
2024/01/20 02:13:23;;;;;;;9.57;3.40;;;1.50;99.90;;;;;;4968132;28;20471;-87
2024/01/20 02:15:49;;;;;;;6.22;3.65;;;1.40;99.90;;;;;;4962338;28;20089;-87
2024/01/20 02:18:15;;;;;;;6.85;3.42;;;1.50;99.90;;;;;;4980662;28;20023;-87
2024/01/20 02:20:40;;;;;;;5.72;3.55;;;1.40;99.90;;;;;;4928775;28;1094679;-86
2024/01/20 02:23:06;;;;;;;9.75;3.72;;;1.40;99.90;;;;;;4963114;28;20033;-87
2024/01/20 02:25:32;;;;;;;7.07;4.07;;;1.40;99.90;;;;;;4966913;28;20019;-87
2024/01/20 02:27:57;;;;;;;8.57;4.05;;;1.40;99.90;;;;;;4968915;28;20079;-88
2024/01/20 02:30:23;;;;;;;8.25;4.32;;;1.40;99.90;;;;;;4964329;28;20038;-88
2024/01/20 02:32:49;;;;;;;8.02;4.25;;;1.40;99.90;;;;;;4968595;28;20433;-87
2024/01/20 02:35:16;;;;;;;8.20;4.13;;;1.40;99.90;;;;;;4966511;28;20029;-88
2024/01/20 02:37:41;;;;;;;5.43;4.72;;;1.40;99.90;;;;;;4966417;28;20030;-88
2024/01/20 02:40:07;;;;;;;9.60;4.90;;;1.40;99.90;;;;;;4964816;28;20038;-86
2024/01/20 02:42:33;;;;;;;7.43;5.05;;;1.40;99.90;;;;;;4970349;28;20070;-86
2024/01/20 02:44:59;;;;;;;8.93;4.70;;;1.40;99.90;;;;;;4968150;28;20031;-86
2024/01/20 02:47:24;;;;;;;6.65;4.35;;;1.40;99.90;;;;;;4964613;28;20019;-86
2024/01/20 02:49:50;;;;;;;9.00;4.85;;;1.40;99.90;;;;;;4964443;28;20051;-87
2024/01/20 02:52:15;;;;;;;9.57;4.97;;;1.40;99.90;;;;;;4971663;28;20098;-85
2024/01/20 02:54:41;;;;;;;8.77;4.88;;;1.40;99.90;;;;;;4964985;28;20019;-85
2024/01/20 02:57:06;;;;;;;8.10;4.93;;;1.40;99.90;;;;;;4960853;28;20069;-87
2024/01/20 02:59:32;;;;;;;9.77;5.38;;;1.40;99.90;;;;;;4965852;28;20494;-87
2024/01/20 03:01:58;;;;;;;12.68;5.65;;;1.40;99.90;;;;;;4962564;28;20102;-86
2024/01/20 03:04:23;;;;;;;7.43;5.45;;;1.40;99.90;;;;;;4970144;28;20027;-86
2024/01/20 03:06:49;;;;;;;10.35;5.68;;;1.40;99.90;;;;;;4966477;28;20035;-86
2024/01/20 03:09:14;;;;;;;7.55;5.35;;;1.40;99.90;;;;;;4966867;28;20022;-86
2024/01/20 03:11:43;;;;;;;15.20;6.35;;;1.40;99.90;;;;;;4957258;28;20039;-87
2024/01/20 03:14:10;;;;;;;7.78;5.78;;;1.40;99.90;;;;;;4962970;28;20053;-88
2024/01/20 03:16:36;;;;;;;9.55;6.10;;;1.40;99.90;;;;;;4955345;28;20098;-85
2024/01/20 03:19:01;;;;;;;7.15;5.60;;;1.40;99.90;;;;;;4984304;28;20030;-89
2024/01/20 03:21:27;;;;;;;6.70;5.57;;;1.40;99.90;;;;;;4959555;28;20033;-88
2024/01/20 03:23:55;;;;;;;8.85;5.90;;;1.40;99.90;;;;;;4961426;28;20053;-87
2024/01/20 03:26:21;;;;;;;10.48;5.78;;;1.40;99.90;;;;;;4960339;28;20027;-87
2024/01/20 03:28:47;;;;;;;11.10;6.03;;;1.40;99.90;;;;;;4959676;28;21479;-87
2024/01/20 03:31:12;;;;;;;8.00;5.07;;;1.40;99.90;;;;;;4964075;28;20062;-86
2024/01/20 03:33:38;;;;;;;9.75;5.30;;;1.30;99.90;;;;;;4948942;28;20514;-90
2024/01/20 03:36:04;;;;;;;9.85;6.03;;;1.40;99.90;;;;;;4962088;28;20041;-88
2024/01/20 03:38:29;;;;;;;10.52;5.65;;;1.40;99.90;;;;;;4951262;28;20043;-87
2024/01/20 03:40:55;;;;;;;9.25;5.55;;;1.30;99.90;;;;;;4959858;28;20049;-88
2024/01/20 03:43:20;;;;;;;9.73;5.30;;;1.30;99.90;;;;;;4965539;28;20026;-87
2024/01/20 03:45:46;;;;;;;10.50;6.43;;;1.30;99.90;;;;;;4960920;28;20720;-87
2024/01/20 03:48:12;;;;;;;10.88;5.57;;;1.30;99.90;;;;;;4960367;28;20518;-87
2024/01/20 03:50:38;;;;;;;6.57;5.55;;;1.30;99.90;;;;;;4956263;28;20070;-87
2024/01/20 03:53:04;;;;;;;10.02;6.35;;;1.30;99.90;;;;;;4962424;28;20027;-87
2024/01/20 03:55:30;;;;;;;10.75;7.05;;;1.20;99.90;;;;;;4965912;28;20235;-86
2024/01/20 03:57:55;;;;;;;9.02;5.93;;;1.20;99.90;;;;;;4961661;28;20281;-86
2024/01/20 04:00:21;;;;;;;11.18;6.55;;;1.20;99.90;;;;;;4936976;28;20701;-88
2024/01/20 04:02:46;;;;;;;12.88;6.20;;;1.20;99.90;;;;;;4952810;28;20126;-89
2024/01/20 04:05:12;;;;;;;7.50;5.57;;;1.20;99.90;;;;;;4956216;28;20039;-88
2024/01/20 04:07:38;;;;;;;8.82;6.47;;;1.20;99.90;;;;;;4958240;28;20023;-86
2024/01/20 04:10:04;;;;;;;8.15;6.60;;;1.20;99.90;;;;;;4965109;28;20026;-87
2024/01/20 04:12:30;;;;;;;14.65;7.85;;;1.20;99.90;;;;;;4959509;28;20528;-89
2024/01/20 04:14:55;;;;;;;10.65;7.13;;;1.20;99.90;;;;;;4963075;28;20058;-88
2024/01/20 04:17:21;;;;;;;8.70;6.88;;;1.20;99.90;;;;;;4950103;28;20027;-88
2024/01/20 04:19:47;;;;;;;11.10;7.85;;;1.10;99.90;;;;;;4951788;28;20042;-88
2024/01/20 04:22:12;;;;;;;14.93;7.00;;;1.20;99.90;;;;;;4959787;28;20085;-89
2024/01/20 04:24:38;;;;;;;9.85;6.72;;;1.20;99.90;;;;;;4947145;28;20018;-89
2024/01/20 04:27:04;;;;;;;15.27;8.05;;;1.20;99.90;;;;;;4951295;28;20506;-90
2024/01/20 04:29:29;;;;;;;12.88;6.10;;;1.10;99.90;;;;;;4953306;28;20285;-88
2024/01/20 04:31:55;;;;;;;13.45;7.63;;;1.10;99.90;;;;;;4950132;28;20046;-88
2024/01/20 04:34:20;;;;;;;14.98;7.35;;;1.10;99.90;;;;;;4961192;28;20045;-88
2024/01/20 04:36:46;;;;;;;10.82;7.68;;;1.10;99.90;;;;;;4959344;28;20110;-88
2024/01/20 04:39:12;;;;;;;11.13;7.70;;;1.10;99.90;;;;;;4950596;28;20105;-89
2024/01/20 04:41:37;;;;;;;10.85;7.43;;;1.00;99.90;;;;;;4962755;28;20483;-88
2024/01/20 04:44:03;;;;;;;16.77;8.65;;;1.00;99.90;;;;;;4949096;28;20031;-88
2024/01/20 04:46:31;;;;;;;12.30;8.25;;;1.00;99.90;;;;;;4963422;28;20058;-88
2024/01/20 04:48:57;;;;;;;11.98;8.43;;;1.00;99.90;;;;;;4960574;28;20023;-88
2024/01/20 04:51:23;;;;;;;10.10;8.15;;;1.00;99.90;;;;;;4958026;28;20449;-87
2024/01/20 04:53:49;;;;;;;15.93;8.57;;;1.00;99.90;;;;;;4966134;28;20038;-88
2024/01/20 04:56:19;;;;;;;12.13;8.57;;;1.00;99.90;;;;;;4951613;28;20529;-87
2024/01/20 04:58:45;;;;;;;12.63;9.38;;;1.00;99.90;;;;;;4955814;28;20363;-89
2024/01/20 05:01:11;;;;;;;13.48;8.52;;;1.00;99.90;;;;;;4960549;28;20030;-88
2024/01/20 05:03:36;;;;;;;14.88;8.70;;;1.00;99.90;;;;;;4951229;28;20038;-88
2024/01/20 05:06:02;;;;;;;13.63;9.23;;;1.00;99.90;;;;;;4961462;28;20114;-91
2024/01/20 05:08:27;;;;;;;13.07;10.07;;;1.00;99.90;;;;;;4952163;28;20050;-88
2024/01/20 05:10:53;;;;;;;13.82;10.07;;;1.00;99.90;;;;;;4947751;28;20117;-88
2024/01/20 05:13:19;;;;;;;16.23;9.65;;;1.00;99.90;;;;;;4959776;28;20043;-89
2024/01/20 05:15:44;;;;;;;15.85;10.65;;;1.10;99.90;;;;;;4954537;28;20034;-88
2024/01/20 05:18:10;;;;;;;11.93;9.63;;;1.00;99.90;;;;;;4951453;28;20019;-88
2024/01/20 05:20:35;;;;;;;14.65;9.77;;;1.10;99.90;;;;;;4961319;28;20134;-87
2024/01/20 05:23:01;;;;;;;13.38;10.35;;;1.10;99.90;;;;;;4947434;28;21245;-89
2024/01/20 05:25:26;;;;;;;14.25;11.18;;;1.10;99.90;;;;;;4962422;28;20019;-88
2024/01/20 05:27:53;;;;;;;19.27;10.77;;;1.10;99.90;;;;;;4967383;28;20027;-88
2024/01/20 05:30:18;;;;;;;14.55;11.40;;;1.10;99.90;;;;;;4964994;28;20023;-88
2024/01/20 05:32:44;;;;;;;14.95;11.23;;;1.00;99.90;;;;;;4970336;28;20693;-88
2024/01/20 05:35:09;;;;;;;15.02;10.70;;;1.00;99.90;;;;;;4976041;28;20022;-89
2024/01/20 05:37:35;;;;;;;17.05;11.43;;;1.00;99.90;;;;;;4966079;28;20489;-88
2024/01/20 05:40:02;;;;;;;16.20;11.32;;;1.00;99.90;;;;;;4966205;28;20030;-87
2024/01/20 05:42:28;;;;;;;18.75;11.73;;;1.00;99.90;;;;;;4958845;28;21931;-88
2024/01/20 05:44:53;;;;;;;16.70;10.95;;;0.90;99.90;;;;;;4969710;28;20029;-89
2024/01/20 05:47:19;;;;;;;18.25;10.85;;;0.90;99.90;;;;;;4963824;28;20030;-88
2024/01/20 05:49:44;;;;;;;19.80;11.65;;;0.90;99.90;;;;;;4965442;28;20081;-88
2024/01/20 05:52:10;;;;;;;16.10;10.73;;;0.90;99.90;;;;;;4966104;28;20035;-87
2024/01/20 05:54:36;;;;;;;13.13;10.50;;;0.80;99.90;;;;;;4959986;28;20034;-88
2024/01/20 05:57:01;;;;;;;12.65;10.13;;;0.80;99.90;;;;;;4964600;28;20130;-90
2024/01/20 05:59:27;;;;;;;20.55;11.65;;;0.80;99.90;;;;;;4961861;28;20031;-87
2024/01/20 06:01:53;;;;;;;16.10;11.93;;;0.80;99.90;;;;;;4947395;28;20118;-88
2024/01/20 06:04:18;;;;;;;16.70;11.75;;;0.80;99.90;;;;;;4946623;28;20027;-87
2024/01/20 06:06:46;;;;;;;14.77;12.30;;;0.80;99.90;;;;;;4952050;28;20086;-88
2024/01/20 06:09:11;;;;;;;16.10;11.55;;;0.80;99.90;;;;;;4954205;28;20138;-90
2024/01/20 06:11:37;;;;;;;16.33;11.90;;;0.80;99.90;;;;;;4964136;28;20150;-88
2024/01/20 06:14:03;;;;;;;14.88;11.38;;;0.80;99.90;;;;;;4960266;28;20390;-87
2024/01/20 06:16:28;;;;;;;20.45;11.43;;;0.80;99.90;;;;;;4953833;28;20023;-88
2024/01/20 06:18:54;;;;;;;17.08;12.05;;;0.90;99.90;;;;;;4947724;28;20033;-89
2024/01/20 06:21:23;;;;;;;19.30;11.73;;;0.80;99.90;;;;;;4947654;28;20475;-88
2024/01/20 06:23:51;;;;;;;19.30;11.45;;;0.80;99.90;;;;;;4964175;28;22165;-88
2024/01/20 06:26:17;;;;;;;16.15;10.23;;;0.90;99.90;;;;;;4953398;28;20099;-89
2024/01/20 06:28:43;;;;;;;17.17;11.45;;;0.90;99.90;;;;;;4946952;28;20030;-88
2024/01/20 06:31:09;;;;;;;15.18;10.77;;;0.90;99.90;;;;;;4945001;28;20031;-88
2024/01/20 06:33:35;;;;;;;16.73;11.75;;;0.90;99.90;;;;;;4964288;28;20019;-88
2024/01/20 06:36:03;;;;;;;16.75;10.82;;;1.00;99.90;;;;;;4964077;28;20109;-89
2024/01/20 06:38:31;;;;;;;15.40;11.82;;;1.00;99.90;;;;;;4961924;28;20113;-88
2024/01/20 06:40:57;;;;;;;14.07;10.30;;;1.00;99.90;;;;;;4947103;28;20038;-87
2024/01/20 06:43:22;;;;;;;15.95;11.20;;;1.00;99.90;;;;;;4941275;28;20023;-88
2024/01/20 06:45:48;;;;;;;15.48;11.90;;;1.00;99.90;;;;;;4954693;28;20085;-88
2024/01/20 06:48:13;;;;;;;14.38;10.52;;;0.90;99.90;;;;;;4952090;28;20027;-88
2024/01/20 06:50:43;;;;;;;17.60;11.63;;;0.90;99.90;;;;;;4962920;28;20066;-87
2024/01/20 06:53:11;;;;;;;14.70;11.55;;;0.90;99.90;;;;;;4958219;28;20022;-89
2024/01/20 06:55:37;;;;;;;17.70;10.52;;;0.90;99.90;;;;;;4963248;28;20131;-88
2024/01/20 06:58:03;;;;;;;16.58;11.93;;;1.00;99.90;;;;;;4948704;28;20118;-89
2024/01/20 07:00:29;;;;;;;14.60;10.68;;;0.90;99.90;;;;;;4952823;28;21683;-88
2024/01/20 07:02:55;;;;;;;14.88;11.50;;;0.90;99.90;;;;;;4963767;28;20045;-86
2024/01/20 07:05:20;;;;;;;20.27;11.57;;;0.90;99.90;;;;;;4967993;28;20031;-87
2024/01/20 07:07:46;;;;;;;15.77;10.77;;;0.90;99.90;;;;;;4960645;28;20089;-88
2024/01/20 07:10:13;;;;;;;15.38;11.68;;;0.80;99.90;;;;;;4954271;28;20035;-86
2024/01/20 07:12:39;;;;;;;13.15;10.18;;;0.80;99.90;;;;;;4959018;28;20550;-86
2024/01/20 07:15:05;;;;;;;21.65;11.82;;;0.80;99.90;;;;;;4966164;28;20208;-88
2024/01/20 07:17:36;;;;;;;16.38;10.90;;;0.70;99.90;;;;;;4962015;28;20023;-87
2024/01/20 07:20:03;;;;;;;17.50;11.95;;;0.70;99.90;;;;;;4963192;28;20079;-87
2024/01/20 07:22:28;;;;;;;13.73;10.70;;;0.70;99.90;;;;;;4958704;28;20519;-86
2024/01/20 07:24:54;;;;;;;16.67;11.00;;;0.70;99.90;;;;;;4988582;23;20134;-61
2024/01/20 07:27:20;;;;;;;15.57;11.63;;;0.60;99.90;;;;;;4940325;28;20121;-61
2024/01/20 07:29:45;;;;;;;15.85;11.55;;;0.60;99.90;;;;;;4942931;28;20049;-61
2024/01/20 07:32:11;;;;;;;18.88;11.52;;;0.50;99.90;;;;;;4957245;28;20036;-61
2024/01/20 07:34:37;;;;;;;23.52;10.95;;;0.50;99.90;;;;;;4911453;28;20038;-61
2024/01/20 07:37:03;;;;;;;20.83;11.90;;;0.50;99.90;;;;;;4918323;28;20031;-61
2024/01/20 07:39:28;;;;;;;15.65;10.80;;;0.60;99.90;;;;;;4928394;28;20042;-61
2024/01/20 07:41:54;;;;;;;15.60;11.40;;;0.50;99.90;;;;;;4920518;28;20026;-62
2024/01/20 07:44:19;;;;;;;17.45;11.95;;;0.50;99.90;;;;;;4944307;28;20110;-61
2024/01/20 07:46:45;;;;;;;20.85;11.88;;;0.50;99.90;;;;;;4917504;28;20054;-61
2024/01/20 07:49:10;;;;;;;17.10;12.50;;;0.50;99.90;;;;;;4914762;28;20069;-62
2024/01/20 07:51:36;;;;;;;18.58;11.48;;;0.50;99.90;;;;;;4933209;28;20031;-60
2024/01/20 07:54:02;;;;;;;18.63;11.57;;;0.50;99.90;;;;;;4920251;28;20517;-60
2024/01/20 07:56:27;;;;;;;21.40;13.02;;;0.50;99.90;;;;;;4941668;28;20021;-61
2024/01/20 07:58:53;;;;;;;22.48;11.25;;;0.50;99.90;;;;;;4912233;28;20030;-61
2024/01/20 08:01:18;;;;;;;14.52;11.20;;;0.50;99.90;;;;;;4908273;28;20089;-61
2024/01/20 08:03:44;;;;;;;15.85;11.10;;;0.50;99.90;;;;;;4921938;28;20031;-62
2024/01/20 08:06:10;;;;;;;18.98;11.45;;;0.60;99.90;;;;;;4918356;28;20027;-62
2024/01/20 08:08:35;;;;;;;19.27;12.57;;;0.60;99.90;;;;;;4914462;28;20512;-62
2024/01/20 08:11:01;;;;;;;17.23;11.68;;;0.70;99.90;;;;;;4945612;28;20113;-62
2024/01/20 08:13:27;;;;;;;22.45;11.27;;;0.70;99.90;;;;;;4902077;28;20057;-61
2024/01/20 08:15:52;;;;;;;25.13;12.07;;;0.70;99.90;;;;;;4928498;28;20522;-61
2024/01/20 08:18:18;;;;;;;18.05;11.30;;;0.80;99.90;;;;;;4891276;28;20034;-62
2024/01/20 08:20:44;;;;;;;16.27;10.52;;;0.80;99.90;;;;;;4907672;28;20026;-62
2024/01/20 08:23:09;;;;;;;20.55;11.45;;;0.80;99.90;;;;;;4934284;28;20033;-61
2024/01/20 08:25:35;;;;;;;16.10;11.20;;;0.80;99.90;;;;;;4885587;28;20208;-62
2024/01/20 08:28:01;;;;;;;17.35;10.20;;;0.90;99.90;;;;;;4913294;28;20514;-62
2024/01/20 08:30:26;;;;;;;17.70;10.07;;;0.90;99.90;;;;;;4910882;28;20048;-62
2024/01/20 08:32:52;;;;;;;18.98;11.65;;;0.90;99.90;;;;;;4910113;28;21927;-62
2024/01/20 08:35:17;;;;;;;17.55;11.55;;;1.00;99.90;;;;;;4934627;28;20026;-62
2024/01/20 08:37:43;;;;;;;21.15;10.60;;;1.00;99.90;;;;;;4891608;28;20038;-62
2024/01/20 08:40:09;;;;;;;14.40;10.02;;;1.10;99.90;;;;;;4893436;28;20047;-62
2024/01/20 08:42:34;;;;;;;18.83;11.55;;;1.10;99.90;;;;;;4923022;28;20027;-62
2024/01/20 08:45:00;;;;;;;21.33;11.52;;;1.20;99.90;;;;;;4903762;28;20027;-62
2024/01/20 08:47:25;;;;;;;17.35;11.35;;;1.20;99.90;;;;;;4926764;28;20054;-61
2024/01/20 08:49:53;;;;;;;20.60;11.55;;;1.20;99.90;;;;;;4887183;28;20126;-61
2024/01/20 08:52:19;;;;;;;25.30;11.57;;;1.10;99.90;;;;;;4881828;28;20034;-61
2024/01/20 08:54:45;;;;;;;19.83;10.93;;;1.20;99.90;;;;;;4925242;28;20034;-62
2024/01/20 08:57:11;;;;;;;18.65;11.52;;;1.20;99.90;;;;;;4893205;28;20090;-62
2024/01/20 08:59:36;;;;;;;23.48;12.00;;;1.20;99.90;;;;;;4920888;28;20027;-63
2024/01/20 09:02:03;;;;;;;19.92;11.50;;;1.20;99.90;;;;;;4928537;28;20080;-60
2024/01/20 09:04:29;;;;;;;19.60;11.50;;;1.10;99.90;;;;;;4897685;28;20577;-62
2024/01/20 09:06:55;;;;;;;22.65;11.63;;;1.10;99.90;;;;;;4926503;28;20037;-61
2024/01/20 09:09:21;;;;;;;18.70;11.95;;;1.10;99.90;;;;;;4896424;28;20027;-61
2024/01/20 09:11:47;;;;;;;20.38;11.45;;;1.10;99.90;;;;;;4899350;28;20353;-61
2024/01/20 09:14:13;;;;;;;21.25;11.10;;;1.20;99.90;;;;;;4932790;28;20035;-60
2024/01/20 09:16:39;;;;;;;20.23;10.85;;;1.20;99.90;;;;;;4871257;28;20039;-62
2024/01/20 09:19:04;;;;;;;18.73;10.65;;;1.20;99.90;;;;;;4896347;28;20388;-61
2024/01/20 09:21:30;;;;;;;20.33;12.07;;;1.30;99.90;;;;;;4914928;28;20042;-62
2024/01/20 09:23:55;;;;;;;20.35;11.88;;;1.30;99.90;;;;;;4895485;28;21461;-61
2024/01/20 09:26:21;;;;;;;18.20;11.32;;;1.30;99.90;;;;;;4931043;28;20038;-62
2024/01/20 09:28:46;;;;;;;19.90;13.05;;;1.30;99.90;;;;;;4893676;28;20031;-62
2024/01/20 09:31:12;;;;;;;22.13;11.80;;;1.40;99.90;;;;;;4887715;28;20046;-61
2024/01/20 09:33:38;;;;;;;22.92;12.55;;;1.50;99.90;;;;;;4916021;28;20033;-61
2024/01/20 09:36:04;;;;;;;25.20;13.27;;;1.50;99.90;;;;;;4890353;28;20039;-61
2024/01/20 09:38:30;;;;;;;23.27;12.77;;;1.60;99.90;;;;;;4919146;28;20080;-62
2024/01/20 09:40:59;;;;;;;27.05;13.80;;;1.70;99.90;;;;;;4902885;28;20389;-63
2024/01/20 09:43:25;;;;;;;21.42;12.00;;;1.70;99.90;;;;;;4891700;28;22528;-60
2024/01/20 09:45:52;;;;;;;20.48;10.88;;;1.80;99.90;;;;;;4902212;28;20031;-61
2024/01/20 09:48:17;;;;;;;25.63;13.75;;;1.90;99.90;;;;;;4885052;28;20026;-62
2024/01/20 09:50:43;;;;;;;22.48;11.90;;;1.90;99.90;;;;;;4887092;28;20034;-61
2024/01/20 09:53:15;;;;;;;26.15;13.18;;;1.90;99.90;;;;;;4928463;28;20054;-61
2024/01/20 09:55:43;;;;;;;21.98;11.82;;;2.00;99.90;;;;;;4885421;28;20102;-60
2024/01/20 09:58:12;;;;;;;21.77;11.95;;;2.10;99.90;;;;;;4882823;28;20105;-62
2024/01/20 10:00:39;;;;;;;17.40;10.77;;;2.10;99.90;;;;;;4913872;28;20470;-61
2024/01/20 10:03:08;;;;;;;21.05;12.32;;;2.20;99.90;;;;;;4886477;28;20030;-62
2024/01/20 10:05:34;;;;;;;23.63;14.27;;;2.20;99.90;;;;;;4895976;28;20019;-61
2024/01/20 10:08:00;;;;;;;24.20;13.63;;;2.20;99.90;;;;;;4921741;28;20549;-62
2024/01/20 10:10:26;;;;;;;16.73;11.80;;;2.20;99.90;;;;;;4933946;28;20031;-61
2024/01/20 10:12:54;;;;;;;24.77;12.05;;;2.20;99.90;;;;;;4949759;28;20042;-61
2024/01/20 10:15:22;;;;;;;19.30;11.20;;;2.30;99.90;;;;;;4922747;28;20030;-62
2024/01/20 10:17:48;;;;;;;17.77;11.02;;;2.30;99.90;;;;;;4940823;28;21598;-61
2024/01/20 10:20:25;;;;;;;18.42;10.90;;;2.30;99.90;;;;;;4946488;28;20039;-62
2024/01/20 10:22:51;;;;;;;19.60;10.10;;;2.40;99.90;;;;;;4929331;28;20076;-61
2024/01/20 10:25:21;;;;;;;20.77;10.15;;;2.50;99.90;;;;;;4924733;28;20042;-62
2024/01/20 10:27:48;;;;;;;23.20;10.60;;;2.50;99.90;;;;;;4941577;28;20018;-61
2024/01/20 10:30:17;;;;;;;14.98;8.93;;;2.50;99.90;;;;;;4939152;28;20026;-60
2024/01/20 10:32:44;;;;;;;14.20;9.15;;;2.60;99.90;;;;;;4938280;28;20411;-61
2024/01/20 10:35:10;;;;;;;17.85;9.60;;;2.60;99.90;;;;;;4957498;28;20042;-61
2024/01/20 10:37:38;;;;;;;20.13;9.85;;;2.60;99.90;;;;;;4933665;28;20069;-60
2024/01/20 10:40:06;;;;;;;17.95;9.63;;;2.60;99.90;;;;;;4941631;28;20031;-61
2024/01/20 10:42:32;;;;;;;16.67;9.50;;;2.70;99.90;;;;;;4927236;28;20026;-61
2024/01/20 10:45:08;;;;;;;17.92;9.32;;;2.70;99.90;;;;;;4935614;28;20047;-61
2024/01/20 10:47:40;;;;;;;15.85;9.60;;;2.80;99.90;;;;;;4950252;28;20026;-61
2024/01/20 10:50:07;;;;;;;21.95;9.82;;;2.80;99.90;;;;;;4953812;28;20038;-63
2024/01/20 10:52:37;;;;;;;16.05;8.48;;;2.80;99.90;;;;;;4936767;28;20473;-61
2024/01/20 10:55:05;;;;;;;16.70;8.98;;;2.70;99.90;;;;;;4944318;28;20034;-62
2024/01/20 10:57:31;;;;;;;16.60;9.27;;;2.70;99.90;;;;;;4939425;28;20030;-62
2024/01/20 10:59:58;;;;;;;17.35;9.00;;;2.70;99.90;;;;;;4930504;28;20443;-60
2024/01/20 11:02:25;;;;;;;19.75;9.95;;;2.60;99.90;;;;;;4955512;28;20492;-63
2024/01/20 11:04:51;;;;;;;16.40;9.18;;;2.60;99.90;;;;;;4928967;28;20117;-61
2024/01/20 11:07:23;;;;;;;16.98;9.15;;;2.60;99.90;;;;;;4934202;28;20101;-59
2024/01/20 11:09:56;;;;;;;16.33;9.18;;;2.60;99.90;;;;;;4948440;28;20668;-63
2024/01/20 11:12:23;;;;;;;16.25;8.23;;;2.50;99.90;;;;;;4927802;28;20031;-61
2024/01/20 11:14:53;;;;;;;12.95;8.30;;;2.50;99.90;;;;;;4928675;28;20705;-61
2024/01/20 11:17:19;;;;;;;14.65;8.38;;;2.50;99.90;;;;;;4954575;28;20109;-61
2024/01/20 11:19:45;;;;;;;17.92;9.40;;;2.50;99.90;;;;;;4932871;28;20031;-61
2024/01/20 11:22:31;;;;;;;17.00;9.02;;;2.50;99.90;;;;;;4928413;28;20037;-62
2024/01/20 11:24:56;;;;;;;16.77;8.95;;;2.60;99.90;;;;;;4946190;28;20042;-62
2024/01/20 11:27:22;;;;;;;16.50;9.30;;;2.50;99.90;;;;;;4929044;28;20034;-60
2024/01/20 11:29:47;;;;;;;18.30;8.75;;;2.50;99.90;;;;;;4928332;28;20019;-61
2024/01/20 11:32:13;;;;;;;19.65;9.70;;;2.50;99.90;;;;;;4950473;28;20103;-62
2024/01/20 11:34:40;;;;;;;15.40;8.73;;;2.60;99.90;;;;;;4927217;28;20027;-62
2024/01/20 11:37:07;;;;;;;21.88;9.70;;;2.60;99.90;;;;;;4941329;28;20118;-62
2024/01/20 11:39:33;;;;;;;12.77;7.70;;;2.60;99.90;;;;;;4939516;28;20026;-62
2024/01/20 11:42:00;;;;;;;12.30;8.38;;;2.60;99.90;;;;;;4929237;28;21944;-62
2024/01/20 11:44:27;;;;;;;16.45;8.13;;;2.60;99.90;;;;;;4951839;28;20058;-62
2024/01/20 11:46:53;;;;;;;15.48;8.95;;;2.60;99.90;;;;;;4929786;28;20023;-62
2024/01/20 11:49:19;;;;;;;18.85;8.90;;;2.70;99.90;;;;;;4926673;28;20119;-62
2024/01/20 11:51:45;;;;;;;14.60;8.32;;;2.70;99.90;;;;;;4943889;28;20129;-62
2024/01/20 11:54:10;;;;;;;21.38;9.35;;;2.70;99.90;;;;;;4929151;28;20058;-62
2024/01/20 11:56:36;;;;;;;19.02;9.07;;;2.70;99.90;;;;;;4937905;28;20031;-63
2024/01/20 11:59:02;;;;;;;14.45;8.68;;;2.80;99.90;;;;;;4942344;28;20491;-61
2024/01/20 12:01:28;;;;;;;16.85;9.13;;;2.80;99.90;;;;;;4923406;28;20041;-63
2024/01/20 12:03:54;;;;;;;20.17;8.90;;;2.90;99.90;;;;;;4944058;28;20491;-62
2024/01/20 12:06:20;;;;;;;16.15;7.90;;;2.80;99.90;;;;;;4926037;28;20026;-62
2024/01/20 12:08:45;;;;;;;17.75;9.10;;;2.80;99.90;;;;;;4924348;28;20381;-63
2024/01/20 12:11:22;;;;;;;15.73;8.23;;;2.70;99.90;;;;;;4947741;28;20027;-62
2024/01/20 12:13:48;;;;;;;19.20;9.20;;;2.60;99.90;;;;;;4942840;28;20029;-63
2024/01/20 12:16:14;;;;;;;18.85;9.45;;;2.60;99.90;;;;;;4924781;28;20117;-62
2024/01/20 12:18:40;;;;;;;16.83;7.93;;;2.50;99.90;;;;;;4942537;28;20129;-62
2024/01/20 12:23:35;;;;;;;21.13;9.85;;;2.50;99.90;;;;;;4978128;23;20057;-60
2024/01/20 12:26:01;;;;;;;15.77;8.90;;;2.50;99.90;;;;;;4961941;28;20038;-56
2024/01/20 12:28:26;;;;;;;18.23;9.43;;;2.50;99.90;;;;;;4943912;28;21341;-54
2024/01/20 12:30:52;;;;;;;24.70;11.63;;;2.50;99.90;;;;;;4974190;28;20026;-49
2024/01/20 12:33:18;;;;;;;17.48;10.18;;;2.40;99.90;;;;;;4961697;28;20026;-52
2024/01/20 12:35:43;;;;;;;16.45;8.55;;;2.40;99.90;;;;;;4963487;28;20027;-53
2024/01/20 12:38:09;;;;;;;13.65;8.55;;;2.40;99.90;;;;;;4962983;28;20088;-54
2024/01/20 12:40:34;;;;;;;19.02;14.05;;;2.50;99.90;;;;;;4964112;28;20033;-55
2024/01/20 12:43:00;;;;;;;22.20;14.18;;;2.50;99.90;;;;;;4985363;28;20656;-54